Twr-7 — TWR-7 — position and weather

sailwx.info

Track history (hours):
 
Tides and Currents Weather Stations Pressure Air Temp Water Temp Dewpoint Dewpoint Depression Visibility Wind Speed Wind Dir Waves Ship Positions

Twr-7

Last reported at 2015-Apr-21 17:24 UTC. Time now 2015-Apr-22 03:53 UTC.
Position N 47°46' W 122°44'.

; draft 1.5 m.

Type: Military. MMSI: 369970258.

Date/timePositionNaut miles runAvg speedWind from/ knotsBaromVisibWave heightAir tempDewpointWater temp
2015-Apr-21 17:24N 47°46' W 122°44'1112.7
2015-Apr-21 16:30N 47°57' W 122°37'1414.4
2015-Apr-21 15:34N 47°44' W 122°30'  
2015-Apr-18 01:19N 47°41' W 122°36'1012.2
2015-Apr-18 00:32N 47°32' W 122°30'1414.2
2015-Apr-17 23:33N 47°18' W 122°28'2 0.6
2015-Apr-17 20:04N 47°17' W 122°26'3 5.2
2015-Apr-17 19:33N 47°19' W 122°28'7 7.2
2015-Apr-17 18:33N 47°26' W 122°25'9 8.7
2015-Apr-17 17:33N 47°35' W 122°28'8 8.2
2015-Apr-17 16:33N 47°43' W 122°28'8 8.3
2015-Apr-17 15:33N 47°51' W 122°29'7 7.1
2015-Apr-17 14:32N 47°57' W 122°35'7 6.8
2015-Apr-17 13:33N 47°51' W 122°38'8 7.7
2015-Apr-17 12:31N 47°44' W 122°45'  
Track history (hours):
 
Tides and Currents Weather Stations Pressure Air Temp Water Temp Dewpoint Dewpoint Depression Visibility Wind Speed Wind Dir Waves Ship Positions

Twr-7

Last reported at 2015-Apr-21 17:24 UTC. Time now 2015-Apr-22 03:53 UTC.
Position N 47°46' W 122°44'.

; draft 1.5 m.

Type: Military. MMSI: 369970258.

Date/timePositionNaut miles runAvg speedWind from/ knotsBaromVisibWave heightAir tempDewpointWater temp
2015-Apr-21 17:24N 47°46' W 122°44'1112.7
2015-Apr-21 16:30N 47°57' W 122°37'1414.4
2015-Apr-21 15:34N 47°44' W 122°30'  
2015-Apr-18 01:19N 47°41' W 122°36'1012.2
2015-Apr-18 00:32N 47°32' W 122°30'1414.2
2015-Apr-17 23:33N 47°18' W 122°28'2 0.6
2015-Apr-17 20:04N 47°17' W 122°26'3 5.2
2015-Apr-17 19:33N 47°19' W 122°28'7 7.2
2015-Apr-17 18:33N 47°26' W 122°25'9 8.7
2015-Apr-17 17:33N 47°35' W 122°28'8 8.2
2015-Apr-17 16:33N 47°43' W 122°28'8 8.3
2015-Apr-17 15:33N 47°51' W 122°29'7 7.1
2015-Apr-17 14:32N 47°57' W 122°35'7 6.8
2015-Apr-17 13:33N 47°51' W 122°38'8 7.7
2015-Apr-17 12:31N 47°44' W 122°45'  

Dump ship's entire track history